Pagrindinis puslapis
METAR-TAF:

METAR-TAF

Oro uostai :

Sogndalis, Norvegija

platuma: 61-09N, ilguma: 007-08E, Aukštis: 49 m

Dabartinis oras

Ataskaita buvo paskelbta 1 valandą ir 15 minutes, ne 19:20 UTC
Ramus vėjas
Temperatūra 6°C
Drėgmė 100%
Slėgis 998 hPa
Matomumas 10 km arba daugiau
Išsisklaidę debesys ne aukštis 4000 ft

METAR: ENSG 231920Z 00000KT 9999 SCT040 06/06 Q0998 RMK WIND 3806FT 03006KT

Laikas: 22:35 (20:35 UTC)


TAF: trūkstamas

Orai ataskaitas ir orų prognozės (METAR, TAF).

turimą stotys yra geltonos ir raudonos taškus žemėlapyje.

Perkelti pele per norėdami pamatyti stoties vardą.

Tada spustelėkite, norėdami matyti oro stebėjimo ir prognozės.

Norėdami pakeisti žemėlapį: spustelėkite ant žalios mygtukų su juodo kryžiaus žemyn,; žalią mygtuką su brūkšneliu, jei norite nutolinti; arba žalių rodyklių gretimoms žemėlapius.


METAR-TAF: